createdAt,value
2022-08-25T00:00:17.007Z,100267.56
2022-08-25T00:02:49.643Z,100274.00
2022-08-25T00:05:29.494Z,100270.47
2022-08-25T00:08:01.306Z,100266.22
2022-08-25T00:10:30.301Z,100270.84
2022-08-25T00:12:59.151Z,100269.00
2022-08-25T00:15:28.709Z,100265.38
2022-08-25T00:18:00.143Z,100266.97
2022-08-25T00:20:30.745Z,100269.63
2022-08-25T00:22:59.482Z,100267.22
2022-08-25T00:25:37.005Z,100267.44
2022-08-25T00:28:08.341Z,100266.00
2022-08-25T00:30:37.316Z,100269.38
2022-08-25T00:33:09.788Z,100270.38
2022-08-25T00:35:40.433Z,100267.72
2022-08-25T00:38:09.172Z,100271.19
2022-08-25T00:40:39.627Z,100269.63
2022-08-25T00:43:09.705Z,100267.19
2022-08-25T00:45:38.668Z,100280.50
2022-08-25T00:48:09.440Z,100278.34
2022-08-25T00:50:39.535Z,100281.13
2022-08-25T00:53:10.011Z,100273.97
2022-08-25T00:55:42.574Z,100274.94
2022-08-25T00:58:17.593Z,100277.50
2022-08-25T01:00:49.693Z,100281.72
2022-08-25T01:03:25.252Z,100276.41
2022-08-25T01:06:03.191Z,100274.84
2022-08-25T01:08:33.956Z,100277.00
2022-08-25T01:11:06.031Z,100277.84
2022-08-25T01:13:36.854Z,100274.47
2022-08-25T01:16:05.760Z,100274.69
2022-08-25T01:19:03.935Z,100281.00
2022-08-25T01:21:41.088Z,100271.53
2022-08-25T01:24:12.852Z,100276.03
2022-08-25T01:26:41.766Z,100279.53
2022-08-25T01:29:25.664Z,100279.06
2022-08-25T01:31:58.125Z,100276.66
2022-08-25T01:34:29.578Z,100265.50
2022-08-25T01:37:02.078Z,100267.69
2022-08-25T01:39:33.472Z,100267.69
2022-08-25T01:42:14.701Z,100260.19
2022-08-25T01:44:45.942Z,100272.16
2022-08-25T01:47:16.430Z,100267.31
2022-08-25T01:50:02.290Z,100262.09
2022-08-25T01:52:36.132Z,100263.09
2022-08-25T01:55:06.804Z,100264.78
2022-08-25T01:57:35.902Z,100262.22
2022-08-25T02:00:07.349Z,100261.41
2022-08-25T02:02:42.653Z,100259.91
2022-08-25T02:05:14.234Z,100258.19
2022-08-25T02:07:45.979Z,100257.34
2022-08-25T02:10:15.478Z,100269.78
2022-08-25T02:12:45.316Z,100265.44
2022-08-25T02:15:14.858Z,100258.66
2022-08-25T02:17:44.309Z,100256.75
2022-08-25T02:20:13.309Z,100260.13
2022-08-25T02:22:43.431Z,100253.00
2022-08-25T02:25:21.676Z,100255.78
2022-08-25T02:27:50.407Z,100253.84
2022-08-25T02:30:19.768Z,100253.84
2022-08-25T02:32:50.006Z,100244.28
2022-08-25T02:35:19.468Z,100251.28
2022-08-25T02:37:48.326Z,100248.63
2022-08-25T02:40:17.795Z,100244.16
2022-08-25T02:42:49.039Z,100249.25
2022-08-25T02:45:19.089Z,100242.22
2022-08-25T02:47:47.956Z,100235.22
2022-08-25T02:50:17.658Z,100239.81
2022-08-25T02:52:47.104Z,100240.06
2022-08-25T02:55:15.910Z,100233.75
2022-08-25T02:57:45.032Z,100234.25
2022-08-25T03:00:17.640Z,100235.47
2022-08-25T03:02:48.024Z,100231.97
2022-08-25T03:05:17.403Z,100237.16
2022-08-25T03:07:47.276Z,100244.88
2022-08-25T03:10:19.101Z,100233.31
2022-08-25T03:12:49.770Z,100243.94
2022-08-25T03:15:20.330Z,100245.63
2022-08-25T03:17:50.793Z,100236.91
2022-08-25T03:20:21.050Z,100239.72
2022-08-25T03:22:50.361Z,100234.63
2022-08-25T03:25:36.634Z,100234.13
2022-08-25T03:28:06.377Z,100225.56
2022-08-25T03:30:37.397Z,100233.75
2022-08-25T03:33:06.619Z,100222.41
2022-08-25T03:35:35.491Z,100230.50
2022-08-25T03:38:07.633Z,100221.91
2022-08-25T03:40:37.317Z,100226.25
2022-08-25T03:43:07.276Z,100218.78
2022-08-25T03:45:42.401Z,100223.22
2022-08-25T03:48:11.877Z,100222.16
2022-08-25T03:50:50.650Z,100218.50
2022-08-25T03:53:22.033Z,100220.78
2022-08-25T03:55:50.664Z,100217.53
2022-08-25T03:58:19.582Z,100214.13
2022-08-25T04:00:50.205Z,100219.69
2022-08-25T04:03:19.501Z,100225.00
2022-08-25T04:05:50.258Z,100223.44
2022-08-25T04:08:19.346Z,100215.31
2022-08-25T04:10:48.901Z,100220.63
2022-08-25T04:13:18.566Z,100228.59
2022-08-25T04:15:47.575Z,100232.97
2022-08-25T04:18:18.816Z,100237.56
2022-08-25T04:20:48.029Z,100226.91
2022-08-25T04:23:17.431Z,100224.75
2022-08-25T04:25:46.553Z,100233.91
2022-08-25T04:28:15.800Z,100220.88
2022-08-25T04:30:47.174Z,100221.00
2022-08-25T04:33:19.854Z,100217.47
2022-08-25T04:35:50.270Z,100220.88
2022-08-25T04:38:19.441Z,100215.31
2022-08-25T04:40:56.713Z,100224.25
2022-08-25T04:43:26.459Z,100222.47
2022-08-25T04:45:56.075Z,100225.38
2022-08-25T04:48:27.453Z,100233.09
2022-08-25T04:50:57.716Z,100228.16
2022-08-25T04:53:27.024Z,100229.03
2022-08-25T04:55:59.537Z,100222.75
2022-08-25T04:58:30.828Z,100229.53
2022-08-25T05:01:03.851Z,100224.09
2022-08-25T05:03:35.168Z,100217.56
2022-08-25T05:06:05.031Z,100211.00
2022-08-25T05:08:34.715Z,100220.47
2022-08-25T05:11:08.006Z,100220.13
2022-08-25T05:13:37.438Z,100213.84
2022-08-25T05:16:09.926Z,100215.69
2022-08-25T05:18:42.083Z,100216.16
2022-08-25T05:21:13.025Z,100220.75
2022-08-25T05:23:42.911Z,100220.38
2022-08-25T05:26:19.583Z,100218.34
2022-08-25T05:28:50.747Z,100207.19
2022-08-25T05:31:20.819Z,100214.69
2022-08-25T05:33:52.586Z,100209.13
2022-08-25T05:36:24.575Z,100210.31
2022-08-25T05:38:53.844Z,100207.16
2022-08-25T05:41:27.695Z,100212.47
2022-08-25T05:43:57.882Z,100215.88
2022-08-25T05:46:27.957Z,100216.34
2022-08-25T05:49:02.531Z,100219.19
2022-08-25T05:51:31.888Z,100225.50
2022-08-25T05:54:01.151Z,100224.94
2022-08-25T05:56:30.511Z,100217.25
2022-08-25T05:58:59.409Z,100227.22
2022-08-25T06:01:48.133Z,100226.88
2022-08-25T06:04:20.907Z,100235.19
2022-08-25T06:06:53.719Z,100229.66
2022-08-25T06:09:23.267Z,100232.09
2022-08-25T06:11:54.940Z,100235.09
2022-08-25T06:14:25.285Z,100228.09
2022-08-25T06:16:54.737Z,100237.84
2022-08-25T06:19:25.486Z,100244.50
2022-08-25T06:21:59.333Z,100239.22
2022-08-25T06:24:29.621Z,100232.50
2022-08-25T06:26:59.586Z,100236.88
2022-08-25T06:29:28.612Z,100238.16
2022-08-25T06:31:58.374Z,100233.25
2022-08-25T06:34:29.135Z,100235.97
2022-08-25T06:36:58.059Z,100234.59
2022-08-25T06:39:27.125Z,100239.69
2022-08-25T06:41:57.585Z,100236.03
2022-08-25T06:44:29.024Z,100230.97
2022-08-25T06:46:58.601Z,100228.66
2022-08-25T06:49:31.813Z,100241.06
2022-08-25T06:52:05.210Z,100239.59
2022-08-25T06:54:34.557Z,100240.75
2022-08-25T06:57:04.011Z,100237.31
2022-08-25T06:59:36.332Z,100244.03
2022-08-25T07:02:10.925Z,100242.69
2022-08-25T07:04:41.708Z,100246.16
2022-08-25T07:07:10.575Z,100235.69
2022-08-25T07:09:39.736Z,100239.00
2022-08-25T07:12:10.021Z,100240.06
2022-08-25T07:14:39.438Z,100243.72
2022-08-25T07:17:10.452Z,100241.56
2022-08-25T07:19:44.522Z,100249.63
2022-08-25T07:22:14.775Z,100239.69
2022-08-25T07:24:44.000Z,100241.97
2022-08-25T07:27:13.091Z,100247.63
2022-08-25T07:29:42.682Z,100251.22
2022-08-25T07:32:12.159Z,100250.97
2022-08-25T07:34:58.250Z,100256.38
2022-08-25T07:37:47.917Z,100256.47
2022-08-25T07:40:19.459Z,100260.31
2022-08-25T07:42:49.742Z,100261.88
2022-08-25T07:48:11.083Z,100269.13
2022-08-25T07:50:45.931Z,100270.50
2022-08-25T07:53:17.750Z,100264.97
2022-08-25T07:55:47.393Z,100268.53
2022-08-25T07:58:16.750Z,100261.66
2022-08-25T08:00:50.761Z,100265.88
2022-08-25T08:03:35.448Z,100269.94
2022-08-25T08:06:11.912Z,100265.13
2022-08-25T08:08:44.963Z,100262.41
2022-08-25T08:11:17.858Z,100255.69
2022-08-25T08:13:48.817Z,100266.13
2022-08-25T08:16:20.940Z,100272.19
2022-08-25T08:18:50.947Z,100263.63
2022-08-25T08:21:23.220Z,100265.13
2022-08-25T08:23:58.112Z,100265.13
2022-08-25T08:26:48.303Z,100262.22
2022-08-25T08:29:20.373Z,100266.09
2022-08-25T08:31:54.890Z,100263.72
2022-08-25T08:34:25.210Z,100262.53
2022-08-25T08:36:58.467Z,100268.22
2022-08-25T08:39:29.213Z,100267.25
2022-08-25T08:42:22.397Z,100266.78
2022-08-25T08:45:05.312Z,100267.81
2022-08-25T08:47:53.126Z,100267.19
2022-08-25T08:50:33.120Z,100281.31
2022-08-25T08:53:10.736Z,100269.38
2022-08-25T08:55:44.380Z,100270.44
2022-08-25T08:58:26.308Z,100266.09
2022-08-25T09:00:59.070Z,100270.13
2022-08-25T09:03:34.969Z,100260.53
2022-08-25T09:06:09.084Z,100259.53
2022-08-25T09:08:45.241Z,100260.75
2022-08-25T09:11:24.438Z,100262.22
2022-08-25T09:14:11.366Z,100255.69
2022-08-25T09:16:56.398Z,100253.53
2022-08-25T09:19:41.985Z,100253.88
2022-08-25T09:22:35.453Z,100257.06
2022-08-25T09:25:18.738Z,100250.78
2022-08-25T09:28:04.749Z,100251.91
2022-08-25T09:30:42.560Z,100247.84
2022-08-25T09:33:21.111Z,100249.38
2022-08-25T09:35:52.053Z,100242.84
2022-08-25T09:38:23.291Z,100242.97
2022-08-25T09:40:57.238Z,100243.44
2022-08-25T09:43:34.060Z,100235.34
2022-08-25T09:46:12.677Z,100241.44
2022-08-25T09:48:48.357Z,100235.47
2022-08-25T09:51:28.535Z,100233.88
2022-08-25T09:54:10.483Z,100231.00
2022-08-25T09:56:50.930Z,100232.31
2022-08-25T09:59:34.276Z,100227.13
2022-08-25T10:02:23.902Z,100220.28
2022-08-25T10:04:54.130Z,100222.16
2022-08-25T10:07:27.926Z,100220.34
2022-08-25T10:09:59.013Z,100209.06
2022-08-25T10:12:36.141Z,100209.28
2022-08-25T10:15:29.120Z,100212.44
2022-08-25T10:18:21.651Z,100205.59
2022-08-25T10:21:07.775Z,100206.66
2022-08-25T10:23:42.194Z,100201.59
2022-08-25T10:26:17.393Z,100203.28
2022-08-25T10:29:06.993Z,100200.97
2022-08-25T10:31:41.382Z,100197.38
2022-08-25T10:34:26.959Z,100194.44
2022-08-25T10:37:11.452Z,100199.47
2022-08-25T10:39:45.092Z,100192.75
2022-08-25T10:42:34.673Z,100196.09
2022-08-25T10:45:40.823Z,100204.06
2022-08-25T10:48:44.799Z,100193.59
2022-08-25T10:51:31.928Z,100190.06
2022-08-25T10:54:09.298Z,100189.19
2022-08-25T10:56:42.827Z,100187.31
2022-08-25T10:59:28.652Z,100184.81
2022-08-25T11:02:13.423Z,100186.44
2022-08-25T11:04:50.438Z,100175.91
2022-08-25T11:07:24.515Z,100170.88
2022-08-25T11:09:58.965Z,100175.91
2022-08-25T11:12:33.363Z,100170.22
2022-08-25T11:15:05.408Z,100174.94
2022-08-25T11:17:50.105Z,100171.09
2022-08-25T11:20:27.375Z,100174.44
2022-08-25T11:23:11.528Z,100168.53
2022-08-25T11:25:44.534Z,100165.34
2022-08-25T11:28:18.050Z,100175.53
2022-08-25T11:30:57.689Z,100167.47
2022-08-25T11:33:31.251Z,100155.19
2022-08-25T11:36:04.998Z,100150.69
2022-08-25T11:38:47.828Z,100157.44
2022-08-25T11:41:28.518Z,100150.53
2022-08-25T11:44:13.977Z,100146.44
2022-08-25T11:46:55.081Z,100146.50
2022-08-25T11:49:46.749Z,100149.75
2022-08-25T11:52:49.369Z,100148.03
2022-08-25T11:55:23.540Z,100151.34
2022-08-25T11:57:54.588Z,100144.00
2022-08-25T12:00:42.350Z,100144.00
2022-08-25T12:03:54.426Z,100140.38
2022-08-25T12:06:29.810Z,100140.03
2022-08-25T12:09:22.294Z,100132.53
2022-08-25T12:11:55.173Z,100137.97
2022-08-25T12:14:48.353Z,100128.97
2022-08-25T12:17:41.023Z,100133.88
2022-08-25T12:20:09.990Z,100131.00
2022-08-25T12:22:51.699Z,100131.84
2022-08-25T12:25:43.664Z,100129.41
2022-08-25T12:28:37.296Z,100119.19
2022-08-25T12:31:21.114Z,100124.78
2022-08-25T12:34:02.533Z,100137.22
2022-08-25T12:36:33.545Z,100130.69
2022-08-25T12:39:24.603Z,100126.81
2022-08-25T12:41:57.668Z,100126.81
2022-08-25T12:44:40.736Z,100118.28
2022-08-25T12:47:25.956Z,100121.06
2022-08-25T12:49:56.448Z,100119.97
2022-08-25T12:52:28.262Z,100113.41
2022-08-25T12:55:03.237Z,100105.75
2022-08-25T12:57:43.646Z,100107.16
2022-08-25T13:00:18.393Z,100116.19
2022-08-25T13:03:13.167Z,100111.47
2022-08-25T13:06:01.220Z,100114.31
2022-08-25T13:09:08.520Z,100111.00
2022-08-25T13:11:43.735Z,100110.38
2022-08-25T13:14:20.476Z,100113.88
2022-08-25T13:16:57.974Z,100106.19
2022-08-25T13:19:34.604Z,100107.41
2022-08-25T13:22:16.460Z,100094.06
2022-08-25T13:24:50.740Z,100101.09
2022-08-25T13:27:28.484Z,100102.88
2022-08-25T13:30:04.027Z,100098.91
2022-08-25T13:32:35.889Z,100097.03
2022-08-25T13:35:20.182Z,100089.72
2022-08-25T13:37:48.764Z,100091.00
2022-08-25T13:40:24.801Z,100090.41
2022-08-25T13:43:02.758Z,100081.91
2022-08-25T13:45:34.780Z,100086.38
2022-08-25T13:48:20.958Z,100093.13
2022-08-25T13:50:53.165Z,100076.00
2022-08-25T13:53:24.862Z,100076.84
2022-08-25T13:55:57.315Z,100070.56
2022-08-25T13:58:38.519Z,100080.56
2022-08-25T14:01:22.707Z,100083.56
2022-08-25T14:04:32.275Z,100073.31
2022-08-25T14:07:10.897Z,100070.25
2022-08-25T14:09:43.069Z,100078.88
2022-08-25T14:12:33.427Z,100076.41
2022-08-25T14:15:08.533Z,100080.44
2022-08-25T14:17:40.989Z,100078.56
2022-08-25T14:20:25.846Z,100074.78
2022-08-25T14:22:58.071Z,100065.63
2022-08-25T14:25:31.450Z,100073.81
2022-08-25T14:28:07.394Z,100066.09
2022-08-25T14:30:43.541Z,100065.66
2022-08-25T14:33:18.300Z,100060.22
2022-08-25T14:35:53.644Z,100070.69
2022-08-25T14:38:24.274Z,100064.41
2022-08-25T14:40:53.823Z,100054.84
2022-08-25T14:43:24.022Z,100061.09
2022-08-25T14:46:04.619Z,100047.06
2022-08-25T14:48:40.522Z,100056.66
2022-08-25T14:51:13.369Z,100066.06
2022-08-25T14:53:43.438Z,100056.03
2022-08-25T14:56:15.148Z,100059.78
2022-08-25T14:58:48.328Z,100060.38
2022-08-25T15:01:28.359Z,100057.22
2022-08-25T15:04:04.875Z,100048.41
2022-08-25T15:06:35.757Z,100055.91
2022-08-25T15:09:08.545Z,100056.94
2022-08-25T15:11:38.723Z,100049.59
2022-08-25T15:14:12.104Z,100050.63
2022-08-25T15:16:47.695Z,100055.41
2022-08-25T15:19:20.637Z,100061.16
2022-08-25T15:21:49.794Z,100065.69
2022-08-25T15:24:20.462Z,100055.19
2022-08-25T15:29:28.456Z,100055.50
2022-08-25T15:32:00.272Z,100048.34
2022-08-25T15:34:29.725Z,100049.31
2022-08-25T15:37:01.668Z,100061.59
2022-08-25T15:39:32.183Z,100051.94
2022-08-25T15:42:01.400Z,100055.81
2022-08-25T15:44:31.591Z,100043.47
2022-08-25T15:47:01.825Z,100044.19
2022-08-25T15:49:31.542Z,100042.19
2022-08-25T15:52:01.025Z,100033.56
2022-08-25T15:54:30.595Z,100034.72
2022-08-25T15:56:59.750Z,100031.09
2022-08-25T15:59:30.922Z,100030.22
2022-08-25T16:02:01.431Z,100036.53
2022-08-25T16:04:33.179Z,100027.63
2022-08-25T16:07:02.838Z,100021.59
2022-08-25T16:09:35.842Z,100020.47
2022-08-25T16:12:06.004Z,100024.34
2022-08-25T16:14:38.959Z,100025.22
2022-08-25T16:17:09.518Z,100022.50
2022-08-25T16:19:38.368Z,100016.56
2022-08-25T16:22:11.164Z,100017.66
2022-08-25T16:24:42.109Z,100015.09
2022-08-25T16:27:13.776Z,100021.78
2022-08-25T16:29:45.729Z,100018.53
2022-08-25T16:32:16.693Z,100024.00
2022-08-25T16:34:45.522Z,100021.09
2022-08-25T16:37:16.853Z,100025.06
2022-08-25T16:39:46.436Z,100029.22
2022-08-25T16:42:17.369Z,100023.72
2022-08-25T16:44:47.292Z,100025.81
2022-08-25T16:47:20.419Z,100025.59
2022-08-25T16:49:53.958Z,100019.06
2022-08-25T16:52:40.724Z,100025.97
2022-08-25T16:55:16.822Z,100016.25
2022-08-25T16:57:47.867Z,100026.91
2022-08-25T17:00:20.222Z,100015.53
2022-08-25T17:02:51.653Z,100024.03
2022-08-25T17:05:20.541Z,100026.09
2022-08-25T17:08:09.721Z,100032.38
2022-08-25T17:10:41.127Z,100023.97
2022-08-25T17:13:14.164Z,100027.06
2022-08-25T17:15:46.188Z,100037.69
2022-08-25T17:18:16.745Z,100039.59
2022-08-25T17:20:46.349Z,100040.31
2022-08-25T17:23:16.356Z,100036.47
2022-08-25T17:25:48.378Z,100034.28
2022-08-25T17:28:17.390Z,100034.13
2022-08-25T17:30:46.613Z,100042.72
2022-08-25T17:33:17.012Z,100038.00
2022-08-25T17:35:54.285Z,100044.03
2022-08-25T17:38:27.145Z,100043.00
2022-08-25T17:41:01.026Z,100036.44
2022-08-25T17:43:31.657Z,100045.31
2022-08-25T17:46:00.901Z,100053.34
2022-08-25T17:48:38.213Z,100046.13
2022-08-25T17:51:13.006Z,100053.31
2022-08-25T17:53:45.456Z,100048.88
2022-08-25T17:56:19.066Z,100053.22
2022-08-25T17:58:48.541Z,100061.06
2022-08-25T18:01:20.209Z,100062.94
2022-08-25T18:03:53.128Z,100066.59
2022-08-25T18:06:22.444Z,100062.47
2022-08-25T18:08:56.317Z,100075.50
2022-08-25T18:11:28.061Z,100062.97
2022-08-25T18:13:57.325Z,100063.34
2022-08-25T18:16:26.837Z,100073.50
2022-08-25T18:18:57.276Z,100072.09
2022-08-25T18:21:27.138Z,100078.38
2022-08-25T18:23:59.438Z,100074.78
2022-08-25T18:26:28.343Z,100078.22
2022-08-25T18:28:57.097Z,100077.13
2022-08-25T18:31:28.799Z,100076.91
2022-08-25T18:33:59.343Z,100067.94
2022-08-25T18:36:27.985Z,100075.44
2022-08-25T18:39:14.711Z,100074.91
2022-08-25T18:41:45.564Z,100072.84
2022-08-25T18:44:15.577Z,100067.78
2022-08-25T18:46:45.581Z,100062.72
2022-08-25T18:49:17.646Z,100058.66
2022-08-25T18:51:49.380Z,100065.00
2022-08-25T18:54:23.050Z,100065.31
2022-08-25T18:56:53.928Z,100067.63
2022-08-25T18:59:23.818Z,100072.53
2022-08-25T19:01:54.278Z,100072.88
2022-08-25T19:04:28.353Z,100072.88
2022-08-25T19:07:01.433Z,100063.44
2022-08-25T19:09:30.585Z,100076.13
2022-08-25T19:11:59.926Z,100081.66
2022-08-25T19:14:29.613Z,100072.09
2022-08-25T19:17:02.903Z,100077.97
2022-08-25T19:19:34.928Z,100077.69
2022-08-25T19:22:06.689Z,100085.25
2022-08-25T19:24:37.614Z,100080.56
2022-08-25T19:27:12.977Z,100088.78
2022-08-25T19:29:42.427Z,100086.53
2022-08-25T19:32:12.658Z,100075.72
2022-08-25T19:34:44.633Z,100071.22
2022-08-25T19:37:19.372Z,100076.91
2022-08-25T19:39:53.222Z,100075.66
2022-08-25T19:42:37.801Z,100069.75
2022-08-25T19:45:09.952Z,100072.88
2022-08-25T19:47:38.979Z,100073.31
2022-08-25T19:50:11.401Z,100079.56
2022-08-25T19:52:45.834Z,100079.88
2022-08-25T19:55:20.071Z,100077.22
2022-08-25T19:57:49.283Z,100077.53
2022-08-25T20:00:22.759Z,100079.19
2022-08-25T20:02:51.801Z,100083.03
2022-08-25T20:05:23.715Z,100080.66
2022-08-25T20:07:53.481Z,100078.97
2022-08-25T20:10:23.710Z,100080.38
2022-08-25T20:12:53.384Z,100084.75
2022-08-25T20:15:22.600Z,100082.34
2022-08-25T20:17:56.634Z,100078.13
2022-08-25T20:20:32.281Z,100077.84
2022-08-25T20:23:15.804Z,100074.75
2022-08-25T20:25:46.205Z,100069.94
2022-08-25T20:28:18.662Z,100062.47
2022-08-25T20:30:48.125Z,100064.72
2022-08-25T20:33:22.595Z,100070.19
2022-08-25T20:35:53.775Z,100066.94
2022-08-25T20:38:24.752Z,100065.34
2022-08-25T20:40:54.630Z,100061.09
2022-08-25T20:43:23.392Z,100053.19
2022-08-25T20:46:00.643Z,100063.28
2022-08-25T20:48:29.947Z,100059.59
2022-08-25T20:51:00.483Z,100058.44
2022-08-25T20:53:29.098Z,100066.97
2022-08-25T20:55:59.136Z,100058.41
2022-08-25T20:58:28.962Z,100061.44
2022-08-25T21:00:57.817Z,100063.53
2022-08-25T21:03:28.008Z,100062.97
2022-08-25T21:05:57.164Z,100058.31
2022-08-25T21:08:28.113Z,100055.16
2022-08-25T21:10:56.902Z,100060.16
2022-08-25T21:13:26.310Z,100060.47
2022-08-25T21:15:55.431Z,100058.03
2022-08-25T21:18:25.934Z,100061.28
2022-08-25T21:20:58.467Z,100064.56
2022-08-25T21:23:29.167Z,100060.50
2022-08-25T21:25:58.287Z,100056.56
2022-08-25T21:28:27.767Z,100062.84
2022-08-25T21:30:59.454Z,100064.09
2022-08-25T21:33:28.477Z,100055.38
2022-08-25T21:35:57.508Z,100048.38
2022-08-25T21:38:29.201Z,100056.59
2022-08-25T21:40:59.029Z,100055.34
2022-08-25T21:43:28.069Z,100060.06
2022-08-25T21:45:58.026Z,100058.50
2022-08-25T21:48:27.672Z,100058.63
2022-08-25T21:51:05.451Z,100058.63
2022-08-25T21:53:37.170Z,100057.53
2022-08-25T21:56:07.914Z,100053.03
2022-08-25T21:58:38.478Z,100053.28
2022-08-25T22:01:21.513Z,100050.19
2022-08-25T22:03:51.524Z,100052.34
2022-08-25T22:06:22.995Z,100051.38
2022-08-25T22:08:54.865Z,100051.66
2022-08-25T22:11:24.238Z,100048.66
2022-08-25T22:13:57.373Z,100054.63
2022-08-25T22:16:29.829Z,100048.84
2022-08-25T22:18:59.653Z,100040.66
2022-08-25T22:21:30.301Z,100035.84
2022-08-25T22:24:04.486Z,100034.66
2022-08-25T22:26:34.712Z,100037.56
2022-08-25T22:29:04.199Z,100037.09
2022-08-25T22:31:34.062Z,100039.28
2022-08-25T22:34:03.656Z,100039.56
2022-08-25T22:36:37.115Z,100029.41
2022-08-25T22:39:09.288Z,100029.22
2022-08-25T22:41:38.158Z,100030.66
2022-08-25T22:44:13.900Z,100030.28
2022-08-25T22:46:44.080Z,100025.69
2022-08-25T22:49:14.343Z,100022.69
2022-08-25T22:51:43.459Z,100027.06
2022-08-25T22:54:18.443Z,100022.25
2022-08-25T22:56:49.845Z,100020.19
2022-08-25T22:59:20.144Z,100018.13
2022-08-25T23:01:52.623Z,100018.50
2022-08-25T23:04:23.701Z,100020.69
2022-08-25T23:06:55.372Z,100009.69
2022-08-25T23:09:32.961Z,100010.78
2022-08-25T23:12:02.495Z,100004.88
2022-08-25T23:14:35.831Z,100002.66
2022-08-25T23:17:07.669Z,100000.50
2022-08-25T23:19:37.312Z,100006.16
2022-08-25T23:22:11.174Z,100005.66
2022-08-25T23:24:43.546Z,100000.72
2022-08-25T23:27:14.837Z,100000.34
2022-08-25T23:29:47.447Z,99993.94
2022-08-25T23:32:18.453Z,99999.69
2022-08-25T23:34:47.513Z,100001.16
2022-08-25T23:37:18.770Z,100000.88
2022-08-25T23:39:49.974Z,99997.13
2022-08-25T23:42:20.690Z,99999.72
2022-08-25T23:44:50.599Z,99999.34
2022-08-25T23:47:19.692Z,99998.13
2022-08-25T23:49:49.427Z,99999.53
2022-08-25T23:52:18.715Z,100000.97
2022-08-25T23:54:49.401Z,99997.88
2022-08-25T23:57:18.969Z,99997.59
2022-08-25T23:59:48.783Z,99993.56
